createdAt,value
2023-05-08T00:01:01.271Z,101663.02
2023-05-08T00:04:05.333Z,101665.51
2023-05-08T00:07:09.503Z,101667.81
2023-05-08T00:10:13.716Z,101668.86
2023-05-08T00:13:18.100Z,101666.31
2023-05-08T00:16:22.324Z,101669.33
2023-05-08T00:19:26.394Z,101669.67
2023-05-08T00:22:30.300Z,101670.55
2023-05-08T00:25:34.686Z,101672.52
2023-05-08T00:28:38.745Z,101672.82
2023-05-08T00:31:43.203Z,101675.54
2023-05-08T00:34:47.255Z,101678.41
2023-05-08T00:37:51.407Z,101676.94
2023-05-08T00:40:55.627Z,101680.27
2023-05-08T00:43:59.547Z,101685.80
2023-05-08T00:47:03.656Z,101688.21
2023-05-08T00:50:08.625Z,101686.38
2023-05-08T00:53:13.143Z,101693.02
2023-05-08T00:56:20.745Z,101691.59
2023-05-08T00:59:26.060Z,101693.59
2023-05-08T01:02:31.719Z,101697.36
2023-05-08T01:05:36.759Z,101698.92
2023-05-08T01:08:41.089Z,101703.66
2023-05-08T01:11:55.635Z,101703.88
2023-05-08T01:15:12.884Z,101705.34
2023-05-08T01:18:23.257Z,101709.77
2023-05-08T01:22:00.742Z,101711.52
2023-05-08T01:25:35.443Z,101715.33
2023-05-08T01:28:51.780Z,101720.42
2023-05-08T01:32:01.664Z,101721.81
2023-05-08T01:35:17.836Z,101716.09
2023-05-08T01:38:31.258Z,101719.81
2023-05-08T01:41:38.594Z,101717.80
2023-05-08T01:44:47.703Z,101718.46
2023-05-08T01:48:06.535Z,101717.32
2023-05-08T01:51:19.902Z,101719.02
2023-05-08T01:54:28.507Z,101724.20
2023-05-08T01:57:34.976Z,101725.75
2023-05-08T02:00:41.911Z,101727.25
2023-05-08T02:03:47.954Z,101730.29
2023-05-08T02:06:52.889Z,101730.70
2023-05-08T02:09:58.386Z,101732.16
2023-05-08T02:13:04.450Z,101736.48
2023-05-08T02:16:11.808Z,101740.15
2023-05-08T02:19:17.247Z,101741.14
2023-05-08T02:22:23.484Z,101740.64
2023-05-08T02:25:29.448Z,101746.94
2023-05-08T02:28:34.922Z,101748.07
2023-05-08T02:31:41.752Z,101740.65
2023-05-08T02:34:58.804Z,101744.92
2023-05-08T02:38:10.917Z,101743.17
2023-05-08T02:41:18.074Z,101740.80
2023-05-08T02:44:22.340Z,101739.39
2023-05-08T02:47:29.974Z,101739.39
2023-05-08T02:51:04.929Z,101747.23
2023-05-08T02:54:21.461Z,101741.73
2023-05-08T02:57:42.922Z,101745.05
2023-05-08T03:00:56.039Z,101745.05
2023-05-08T03:04:06.302Z,101745.22
2023-05-08T03:07:11.355Z,101742.73
2023-05-08T03:10:16.820Z,101747.74
2023-05-08T03:13:21.561Z,101747.09
2023-05-08T03:16:32.176Z,101750.06
2023-05-08T03:19:39.323Z,101753.83
2023-05-08T03:22:46.768Z,101755.84
2023-05-08T03:25:52.851Z,101755.58
2023-05-08T03:28:58.924Z,101759.40
2023-05-08T03:32:08.452Z,101758.58
2023-05-08T03:35:14.611Z,101763.80
2023-05-08T03:38:18.677Z,101761.88
2023-05-08T03:41:23.135Z,101766.20
2023-05-08T03:44:30.043Z,101770.19
2023-05-08T03:47:36.095Z,101770.27
2023-05-08T03:50:40.433Z,101774.42
2023-05-08T03:53:46.596Z,101775.66
2023-05-08T03:56:53.792Z,101774.39
2023-05-08T04:00:02.915Z,101776.05
2023-05-08T04:03:53.045Z,101776.59
2023-05-08T04:07:08.504Z,101774.80
2023-05-08T04:10:23.798Z,101773.95
2023-05-08T04:13:32.292Z,101780.92
2023-05-08T04:16:48.591Z,101785.75
2023-05-08T04:20:01.122Z,101789.49
2023-05-08T04:23:07.196Z,101791.80
2023-05-08T04:26:15.904Z,101799.42
2023-05-08T04:29:21.936Z,101805.13
2023-05-08T04:32:27.775Z,101804.33
2023-05-08T04:35:34.171Z,101802.96
2023-05-08T04:38:40.582Z,101809.86
2023-05-08T04:41:44.957Z,101815.02
2023-05-08T04:44:50.749Z,101812.95
2023-05-08T04:47:55.233Z,101819.65
2023-05-08T04:51:00.101Z,101820.17
2023-05-08T04:54:04.290Z,101824.58
2023-05-08T04:57:08.301Z,101826.63
2023-05-08T05:00:13.534Z,101827.41
2023-05-08T05:03:18.501Z,101826.36
2023-05-08T05:06:22.616Z,101832.60
2023-05-08T05:09:27.399Z,101826.80
2023-05-08T05:12:31.494Z,101826.68
2023-05-08T05:15:35.837Z,101828.91
2023-05-08T05:18:39.853Z,101830.90
2023-05-08T05:21:43.850Z,101832.21
2023-05-08T05:24:48.588Z,101836.20
2023-05-08T05:27:52.727Z,101837.22
2023-05-08T05:30:57.144Z,101839.35
2023-05-08T05:34:01.355Z,101842.85
2023-05-08T05:37:06.888Z,101845.16
2023-05-08T05:40:13.365Z,101843.65
2023-05-08T05:43:17.586Z,101850.80
2023-05-08T05:46:22.178Z,101847.23
2023-05-08T05:49:26.327Z,101848.62
2023-05-08T05:52:30.619Z,101847.17
2023-05-08T05:55:35.832Z,101852.70
2023-05-08T05:58:44.758Z,101857.27
2023-05-08T06:01:49.115Z,101861.98
2023-05-08T06:04:55.347Z,101859.45
2023-05-08T06:07:59.361Z,101859.27
2023-05-08T06:11:03.797Z,101858.28
2023-05-08T06:14:07.939Z,101858.34
2023-05-08T06:17:12.054Z,101861.45
2023-05-08T06:20:17.366Z,101857.80
2023-05-08T06:23:21.748Z,101860.02
2023-05-08T06:26:26.334Z,101855.33
2023-05-08T06:29:30.543Z,101859.27
2023-05-08T06:32:34.609Z,101857.48
2023-05-08T06:35:38.865Z,101855.27
2023-05-08T06:38:42.913Z,101858.71
2023-05-08T06:41:50.098Z,101855.30
2023-05-08T06:45:01.696Z,101854.70
2023-05-08T06:48:06.763Z,101853.45
2023-05-08T06:51:10.804Z,101854.26
2023-05-08T06:54:15.193Z,101853.39
2023-05-08T06:57:19.493Z,101849.84
2023-05-08T07:00:23.495Z,101855.64
2023-05-08T07:03:28.246Z,101853.59
2023-05-08T07:06:32.303Z,101854.68
2023-05-08T07:09:36.470Z,101858.36
2023-05-08T07:12:41.086Z,101851.45
2023-05-08T07:15:45.442Z,101847.65
2023-05-08T07:18:49.538Z,101844.54
2023-05-08T07:21:53.606Z,101847.15
2023-05-08T07:24:58.023Z,101850.27
2023-05-08T07:28:02.164Z,101852.42
2023-05-08T07:31:07.325Z,101853.42
2023-05-08T07:34:11.355Z,101856.80
2023-05-08T07:37:15.383Z,101850.02
2023-05-08T07:40:19.491Z,101848.09
2023-05-08T07:43:24.502Z,101847.09
2023-05-08T07:46:28.871Z,101845.82
2023-05-08T07:49:33.083Z,101850.41
2023-05-08T07:52:37.031Z,101851.48
2023-05-08T07:55:41.305Z,101849.10
2023-05-08T07:58:46.250Z,101851.14
2023-05-08T08:01:50.308Z,101847.34
2023-05-08T08:04:54.381Z,101846.91
2023-05-08T08:07:58.397Z,101849.83
2023-05-08T08:11:03.826Z,101850.73
2023-05-08T08:14:08.576Z,101850.33
2023-05-08T08:17:12.713Z,101850.66
2023-05-08T08:20:17.026Z,101849.09
2023-05-08T08:23:21.138Z,101846.33
2023-05-08T08:26:25.357Z,101846.58
2023-05-08T08:29:29.862Z,101842.61
2023-05-08T08:32:33.975Z,101839.88
2023-05-08T08:35:38.445Z,101834.88
2023-05-08T08:38:42.488Z,101833.50
2023-05-08T08:41:46.769Z,101834.45
2023-05-08T08:44:51.507Z,101829.09
2023-05-08T08:47:58.834Z,101832.70
2023-05-08T08:51:11.881Z,101829.08
2023-05-08T08:54:21.409Z,101828.13
2023-05-08T08:57:27.950Z,101824.45
2023-05-08T09:00:33.076Z,101822.44
2023-05-08T09:03:37.614Z,101818.89
2023-05-08T09:06:41.698Z,101820.77
2023-05-08T09:09:47.199Z,101820.16
2023-05-08T09:12:51.735Z,101820.55
2023-05-08T09:15:58.180Z,101817.48
2023-05-08T09:19:04.487Z,101814.81
2023-05-08T09:22:10.722Z,101823.08
2023-05-08T09:25:14.916Z,101820.48
2023-05-08T09:28:20.544Z,101816.02
2023-05-08T09:31:35.072Z,101818.48
2023-05-08T09:34:39.132Z,101816.48
2023-05-08T09:37:43.900Z,101815.84
2023-05-08T09:41:06.166Z,101807.69
2023-05-08T09:44:10.039Z,101805.40
2023-05-08T09:47:15.132Z,101804.81
2023-05-08T09:50:19.229Z,101806.23
2023-05-08T09:53:31.772Z,101806.89
2023-05-08T09:56:40.013Z,101802.73
2023-05-08T09:59:44.154Z,101798.54
2023-05-08T10:03:04.545Z,101796.90
2023-05-08T10:06:15.675Z,101799.98
2023-05-08T10:09:19.717Z,101795.46
2023-05-08T10:12:24.682Z,101786.48
2023-05-08T10:15:31.923Z,101777.23
2023-05-08T10:18:39.771Z,101778.59
2023-05-08T10:21:47.928Z,101776.23
2023-05-08T10:24:57.898Z,101766.31
2023-05-08T10:28:37.836Z,101766.77
2023-05-08T10:31:45.379Z,101766.14
2023-05-08T10:34:53.963Z,101763.45
2023-05-08T10:37:59.355Z,101762.52
2023-05-08T10:41:03.420Z,101763.45
2023-05-08T10:44:09.448Z,101764.54
2023-05-08T10:47:32.391Z,101764.91
2023-05-08T10:51:14.512Z,101761.53
2023-05-08T10:54:34.238Z,101761.48
2023-05-08T10:57:38.159Z,101762.04
2023-05-08T11:00:57.119Z,101758.64
2023-05-08T11:04:01.321Z,101760.55
2023-05-08T11:07:05.598Z,101755.96
2023-05-08T11:10:14.270Z,101751.50
2023-05-08T11:13:20.004Z,101751.94
2023-05-08T11:16:55.407Z,101748.25
2023-05-08T11:20:02.209Z,101742.66
2023-05-08T11:23:22.899Z,101744.25
2023-05-08T11:26:42.564Z,101744.09
2023-05-08T11:30:18.645Z,101740.81
2023-05-08T11:33:29.195Z,101736.17
2023-05-08T11:36:36.886Z,101729.47
2023-05-08T11:39:41.016Z,101732.05
2023-05-08T11:42:45.088Z,101728.61
2023-05-08T11:45:49.248Z,101722.27
2023-05-08T11:48:59.926Z,101727.73
2023-05-08T11:52:06.123Z,101730.48
2023-05-08T11:55:13.047Z,101730.35
2023-05-08T11:58:17.197Z,101726.34
2023-05-08T12:01:21.306Z,101717.95
2023-05-08T12:04:25.431Z,101718.35
2023-05-08T12:07:29.953Z,101717.41
2023-05-08T12:10:39.386Z,101713.02
2023-05-08T12:13:43.416Z,101717.39
2023-05-08T12:16:47.471Z,101710.98
2023-05-08T12:19:55.000Z,101713.06
2023-05-08T12:23:03.454Z,101706.02
2023-05-08T12:26:08.648Z,101703.52
2023-05-08T12:29:12.586Z,101702.85
2023-05-08T12:32:16.938Z,101705.48
2023-05-08T12:35:21.370Z,101702.04
2023-05-08T12:38:27.277Z,101701.82
2023-05-08T12:41:31.234Z,101704.84
2023-05-08T12:44:35.334Z,101698.67
2023-05-08T12:47:39.419Z,101697.97
2023-05-08T12:50:46.093Z,101695.41
2023-05-08T12:53:50.880Z,101690.08
2023-05-08T12:56:55.197Z,101686.77
2023-05-08T13:00:06.195Z,101680.80
2023-05-08T13:03:12.330Z,101676.35
2023-05-08T13:06:21.683Z,101670.57
2023-05-08T13:09:25.714Z,101661.91
2023-05-08T13:12:30.080Z,101664.16
2023-05-08T13:15:35.257Z,101660.07
2023-05-08T13:18:39.825Z,101647.55
2023-05-08T13:21:48.189Z,101654.77
2023-05-08T13:24:53.075Z,101657.50
2023-05-08T13:27:58.300Z,101657.96
2023-05-08T13:31:02.312Z,101660.10
2023-05-08T13:34:06.328Z,101655.23
2023-05-08T13:37:10.648Z,101655.64
2023-05-08T13:40:14.960Z,101655.60
2023-05-08T13:43:19.156Z,101650.95
2023-05-08T13:46:24.791Z,101642.32
2023-05-08T13:49:28.764Z,101637.55
2023-05-08T13:52:32.801Z,101631.14
2023-05-08T13:55:37.176Z,101635.29
2023-05-08T13:58:41.122Z,101632.71
2023-05-08T14:01:45.095Z,101623.30
2023-05-08T14:04:49.152Z,101627.42
2023-05-08T14:07:53.167Z,101623.37
2023-05-08T14:10:57.182Z,101627.66
2023-05-08T14:14:01.510Z,101630.33
2023-05-08T14:17:06.242Z,101632.70
2023-05-08T14:20:12.127Z,101627.56
2023-05-08T14:23:16.240Z,101624.16
2023-05-08T14:26:21.459Z,101623.15
2023-05-08T14:29:25.589Z,101619.95
2023-05-08T14:32:29.610Z,101625.13
2023-05-08T14:35:33.610Z,101622.52
2023-05-08T14:38:37.620Z,101616.48
2023-05-08T14:41:51.243Z,101618.95
2023-05-08T14:45:07.278Z,101622.80
2023-05-08T14:48:11.534Z,101621.98
2023-05-08T14:51:15.812Z,101619.42
2023-05-08T14:54:19.968Z,101616.13
2023-05-08T14:57:24.066Z,101615.34
2023-05-08T15:00:28.015Z,101615.81
2023-05-08T15:03:32.590Z,101615.46
2023-05-08T15:06:36.934Z,101615.21
2023-05-08T15:09:41.128Z,101616.60
2023-05-08T15:12:45.181Z,101617.76
2023-05-08T15:15:49.166Z,101617.69
2023-05-08T15:18:53.100Z,101618.98
2023-05-08T15:21:57.280Z,101616.42
2023-05-08T15:25:02.819Z,101618.06
2023-05-08T15:28:06.865Z,101615.81
2023-05-08T15:31:10.880Z,101625.15
2023-05-08T15:34:14.907Z,101623.92
2023-05-08T15:37:18.909Z,101623.99
2023-05-08T15:40:22.843Z,101621.70
2023-05-08T15:43:26.858Z,101619.82
2023-05-08T15:46:30.858Z,101619.61
2023-05-08T15:49:34.875Z,101617.05
2023-05-08T15:52:38.885Z,101611.17
2023-05-08T15:55:42.993Z,101607.02
2023-05-08T15:58:47.232Z,101612.02
2023-05-08T16:01:52.136Z,101605.62
2023-05-08T16:04:57.489Z,101606.67
2023-05-08T16:08:01.625Z,101605.69
2023-05-08T16:11:05.823Z,101606.63
2023-05-08T16:14:09.854Z,101601.59
2023-05-08T16:17:13.833Z,101599.02
2023-05-08T16:20:17.793Z,101598.06
2023-05-08T16:23:21.817Z,101597.61
2023-05-08T16:26:26.666Z,101596.85
2023-05-08T16:29:30.664Z,101601.84
2023-05-08T16:32:34.613Z,101601.36
2023-05-08T16:35:40.172Z,101602.75
2023-05-08T16:38:44.251Z,101598.88
2023-05-08T16:41:48.200Z,101598.98
2023-05-08T16:44:52.184Z,101600.92
2023-05-08T16:47:56.255Z,101599.86
2023-05-08T16:51:00.554Z,101601.87
2023-05-08T16:54:04.547Z,101602.23
2023-05-08T16:57:08.546Z,101601.71
2023-05-08T17:00:13.313Z,101604.44
2023-05-08T17:03:17.326Z,101604.84
2023-05-08T17:06:21.513Z,101606.66
2023-05-08T17:09:26.494Z,101614.02
2023-05-08T17:12:30.470Z,101614.45
2023-05-08T17:15:34.586Z,101614.54
2023-05-08T17:18:38.489Z,101616.04
2023-05-08T17:21:42.394Z,101617.88
2023-05-08T17:24:46.641Z,101612.91
2023-05-08T17:27:51.383Z,101615.00
2023-05-08T17:30:55.461Z,101616.30
2023-05-08T17:33:59.464Z,101613.79
2023-05-08T17:37:03.629Z,101619.11
2023-05-08T17:40:09.771Z,101618.00
2023-05-08T17:43:13.726Z,101621.31
2023-05-08T17:46:17.666Z,101624.75
2023-05-08T17:49:21.732Z,101623.92
2023-05-08T17:52:25.732Z,101624.23
2023-05-08T17:55:31.809Z,101628.30
2023-05-08T17:58:35.829Z,101631.11
2023-05-08T18:01:39.867Z,101633.21
2023-05-08T18:04:43.794Z,101635.93
2023-05-08T18:07:47.871Z,101642.02
2023-05-08T18:10:51.999Z,101640.30
2023-05-08T18:13:56.219Z,101639.77
2023-05-08T18:17:00.639Z,101647.29
2023-05-08T18:20:07.987Z,101647.80
2023-05-08T18:23:12.080Z,101658.31
2023-05-08T18:26:17.190Z,101657.02
2023-05-08T18:29:21.151Z,101660.27
2023-05-08T18:32:25.130Z,101658.13
2023-05-08T18:35:29.134Z,101661.98
2023-05-08T18:38:34.110Z,101668.25
2023-05-08T18:41:38.192Z,101668.75
2023-05-08T18:44:42.301Z,101672.96
2023-05-08T18:47:46.408Z,101671.08
2023-05-08T18:50:50.766Z,101673.00
2023-05-08T18:53:57.304Z,101672.62
2023-05-08T18:57:01.345Z,101681.77
2023-05-08T19:00:06.478Z,101686.79
2023-05-08T19:03:10.533Z,101688.86
2023-05-08T19:06:15.116Z,101689.94
2023-05-08T19:09:19.017Z,101694.25
2023-05-08T19:12:23.266Z,101695.70
2023-05-08T19:15:27.675Z,101697.69
2023-05-08T19:18:32.235Z,101699.83
2023-05-08T19:21:36.330Z,101699.33
2023-05-08T19:24:40.304Z,101702.86
2023-05-08T19:27:44.664Z,101699.82
2023-05-08T19:30:48.692Z,101694.95
2023-05-08T19:33:52.709Z,101694.27
2023-05-08T19:36:56.727Z,101697.57
2023-05-08T19:40:00.684Z,101694.73
2023-05-08T19:43:05.556Z,101693.45
2023-05-08T19:46:09.644Z,101694.91
2023-05-08T19:49:16.267Z,101693.02
2023-05-08T19:52:20.701Z,101692.92
2023-05-08T19:55:24.688Z,101688.21
2023-05-08T19:58:28.654Z,101689.33
2023-05-08T20:01:32.760Z,101686.38
2023-05-08T20:04:48.811Z,101686.08
2023-05-08T20:08:00.836Z,101682.36
2023-05-08T20:11:07.201Z,101679.88
2023-05-08T20:14:11.226Z,101680.59
2023-05-08T20:17:15.446Z,101680.27
2023-05-08T20:20:19.461Z,101680.27
2023-05-08T20:23:23.580Z,101683.38
2023-05-08T20:26:28.502Z,101677.23
2023-05-08T20:29:32.751Z,101679.14
2023-05-08T20:32:36.881Z,101680.95
2023-05-08T20:35:41.276Z,101681.91
2023-05-08T20:38:45.148Z,101683.51
2023-05-08T20:41:49.078Z,101684.39
2023-05-08T20:44:53.119Z,101685.02
2023-05-08T20:47:57.220Z,101686.02
2023-05-08T20:51:01.335Z,101685.73
2023-05-08T20:54:05.579Z,101684.75
2023-05-08T20:57:09.697Z,101686.01
2023-05-08T21:00:14.423Z,101682.79
2023-05-08T21:03:18.472Z,101678.62
2023-05-08T21:06:22.464Z,101680.98
2023-05-08T21:09:26.901Z,101681.42
2023-05-08T21:12:30.799Z,101676.23
2023-05-08T21:15:35.228Z,101677.66
2023-05-08T21:18:39.190Z,101676.67
2023-05-08T21:21:47.383Z,101672.23
2023-05-08T21:24:51.388Z,101677.84
2023-05-08T21:27:55.580Z,101677.01
2023-05-08T21:30:59.746Z,101669.73
2023-05-08T21:34:04.338Z,101667.25
2023-05-08T21:37:08.356Z,101671.11
2023-05-08T21:40:12.489Z,101667.21
2023-05-08T21:43:16.505Z,101668.48
2023-05-08T21:46:20.564Z,101669.02
2023-05-08T21:49:24.619Z,101672.06
2023-05-08T21:52:28.641Z,101669.20
2023-05-08T21:55:32.671Z,101666.80
2023-05-08T21:58:36.606Z,101671.45
2023-05-08T22:01:40.587Z,101671.92
2023-05-08T22:04:44.827Z,101669.14
2023-05-08T22:07:48.803Z,101670.43
2023-05-08T22:10:53.167Z,101673.20
2023-05-08T22:13:57.775Z,101673.27
2023-05-08T22:17:01.632Z,101672.35
2023-05-08T22:20:09.278Z,101672.27
2023-05-08T22:23:13.200Z,101672.48
2023-05-08T22:26:17.094Z,101671.94
2023-05-08T22:29:21.028Z,101669.20
2023-05-08T22:32:25.375Z,101671.34
2023-05-08T22:35:29.347Z,101666.13
2023-05-08T22:38:33.247Z,101664.86
2023-05-08T22:41:37.603Z,101660.94
2023-05-08T22:44:42.950Z,101660.17
2023-05-08T22:47:47.154Z,101660.27
2023-05-08T22:50:51.783Z,101661.41
2023-05-08T22:53:56.312Z,101661.36
2023-05-08T22:57:00.645Z,101660.34
2023-05-08T23:00:07.260Z,101658.18
2023-05-08T23:03:11.225Z,101659.98
2023-05-08T23:06:15.144Z,101657.19
2023-05-08T23:09:19.170Z,101660.45
2023-05-08T23:12:23.195Z,101663.30
2023-05-08T23:15:27.423Z,101661.52
2023-05-08T23:18:34.172Z,101662.21
2023-05-08T23:21:38.204Z,101664.80
2023-05-08T23:24:42.290Z,101665.99
2023-05-08T23:27:46.292Z,101661.03
2023-05-08T23:30:50.261Z,101659.73
2023-05-08T23:33:54.470Z,101660.07
2023-05-08T23:37:00.837Z,101659.23
2023-05-08T23:40:06.566Z,101658.61
2023-05-08T23:43:11.027Z,101660.67
2023-05-08T23:46:15.066Z,101665.00
2023-05-08T23:49:18.967Z,101661.67
2023-05-08T23:52:23.367Z,101662.45
2023-05-08T23:55:27.554Z,101666.14
2023-05-08T23:58:31.603Z,101663.89
